createdAt,value
2023-04-04T00:01:49.620Z,98629.16
2023-04-04T00:04:57.164Z,98631.78
2023-04-04T00:08:03.291Z,98627.19
2023-04-04T00:11:17.602Z,98622.56
2023-04-04T00:14:25.441Z,98623.84
2023-04-04T00:17:32.247Z,98613.28
2023-04-04T00:20:39.013Z,98618.06
2023-04-04T00:23:45.954Z,98615.53
2023-04-04T00:26:54.578Z,98612.75
2023-04-04T00:30:04.764Z,98618.19
2023-04-04T00:33:10.947Z,98605.66
2023-04-04T00:36:18.965Z,98611.00
2023-04-04T00:39:26.782Z,98606.06
2023-04-04T00:42:37.753Z,98614.09
2023-04-04T00:45:44.694Z,98604.66
2023-04-04T00:48:54.541Z,98604.19
2023-04-04T00:52:00.549Z,98611.09
2023-04-04T00:55:20.898Z,98604.38
2023-04-04T00:58:30.580Z,98612.59
2023-04-04T01:01:38.944Z,98613.53
2023-04-04T01:04:51.963Z,98621.69
2023-04-04T01:07:59.171Z,98623.97
2023-04-04T01:11:05.727Z,98612.00
2023-04-04T01:14:15.964Z,98630.28
2023-04-04T01:17:23.124Z,98618.06
2023-04-04T01:20:37.276Z,98617.25
2023-04-04T01:24:05.185Z,98611.78
2023-04-04T01:27:30.079Z,98622.53
2023-04-04T01:30:49.191Z,98616.84
2023-04-04T01:34:08.141Z,98625.59
2023-04-04T01:37:33.386Z,98628.38
2023-04-04T01:40:47.837Z,98627.81
2023-04-04T01:43:57.598Z,98624.81
2023-04-04T01:47:08.955Z,98626.91
2023-04-04T01:50:15.773Z,98624.41
2023-04-04T01:53:23.402Z,98619.56
2023-04-04T01:56:29.475Z,98623.66
2023-04-04T01:59:41.555Z,98624.28
2023-04-04T02:02:47.890Z,98628.22
2023-04-04T02:05:56.402Z,98625.88
2023-04-04T02:09:02.933Z,98629.16
2023-04-04T02:12:12.195Z,98637.88
2023-04-04T02:15:24.227Z,98632.53
2023-04-04T02:18:37.355Z,98634.13
2023-04-04T02:21:57.774Z,98631.31
2023-04-04T02:25:12.987Z,98633.50
2023-04-04T02:28:18.940Z,98633.41
2023-04-04T02:31:32.600Z,98634.41
2023-04-04T02:34:39.037Z,98632.75
2023-04-04T02:37:49.841Z,98638.72
2023-04-04T02:41:05.393Z,98638.91
2023-04-04T02:44:12.903Z,98639.56
2023-04-04T02:47:24.440Z,98632.22
2023-04-04T02:50:31.290Z,98630.47
2023-04-04T02:53:40.098Z,98634.25
2023-04-04T02:57:01.747Z,98633.81
2023-04-04T03:00:10.191Z,98622.25
2023-04-04T03:03:20.635Z,98632.31
2023-04-04T03:06:37.983Z,98635.19
2023-04-04T03:09:47.731Z,98637.97
2023-04-04T03:12:53.890Z,98636.38
2023-04-04T03:16:10.559Z,98628.94
2023-04-04T03:19:28.298Z,98629.38
2023-04-04T03:22:36.389Z,98626.19
2023-04-04T03:25:42.585Z,98633.16
2023-04-04T03:28:49.571Z,98626.59
2023-04-04T03:32:18.481Z,98622.31
2023-04-04T03:35:28.351Z,98621.47
2023-04-04T03:38:34.544Z,98630.06
2023-04-04T03:41:50.178Z,98623.41
2023-04-04T03:44:56.513Z,98624.16
2023-04-04T03:48:14.093Z,98623.94
2023-04-04T03:51:27.713Z,98627.19
2023-04-04T03:54:42.202Z,98626.94
2023-04-04T03:57:49.566Z,98623.69
2023-04-04T04:00:57.551Z,98620.66
2023-04-04T04:04:08.453Z,98625.34
2023-04-04T04:07:19.514Z,98626.09
2023-04-04T04:10:25.819Z,98619.88
2023-04-04T04:13:32.893Z,98616.94
2023-04-04T04:16:43.451Z,98618.09
2023-04-04T04:19:54.238Z,98617.34
2023-04-04T04:23:04.393Z,98611.06
2023-04-04T04:26:11.284Z,98613.91
2023-04-04T04:29:17.418Z,98613.31
2023-04-04T04:32:33.923Z,98622.91
2023-04-04T04:35:41.317Z,98614.69
2023-04-04T04:38:56.289Z,98611.66
2023-04-04T04:42:06.086Z,98610.06
2023-04-04T04:45:16.507Z,98619.56
2023-04-04T04:48:27.453Z,98616.63
2023-04-04T04:51:37.793Z,98615.03
2023-04-04T04:54:56.285Z,98620.66
2023-04-04T04:58:04.706Z,98622.16
2023-04-04T05:01:11.662Z,98622.16
2023-04-04T05:04:22.773Z,98627.19
2023-04-04T05:07:51.768Z,98631.72
2023-04-04T05:11:02.697Z,98628.94
2023-04-04T05:14:11.765Z,98632.50
2023-04-04T05:17:37.190Z,98632.78
2023-04-04T05:20:46.804Z,98634.78
2023-04-04T05:23:54.196Z,98636.66
2023-04-04T05:27:07.888Z,98640.38
2023-04-04T05:30:21.135Z,98635.69
2023-04-04T05:33:40.292Z,98637.19
2023-04-04T05:36:56.738Z,98638.47
2023-04-04T05:40:03.302Z,98636.91
2023-04-04T05:43:12.936Z,98637.50
2023-04-04T05:46:33.187Z,98642.53
2023-04-04T05:49:40.092Z,98648.25
2023-04-04T05:52:46.299Z,98635.53
2023-04-04T05:55:56.021Z,98639.44
2023-04-04T05:59:22.343Z,98633.88
2023-04-04T06:02:46.663Z,98627.75
2023-04-04T06:05:57.453Z,98632.97
2023-04-04T06:09:05.805Z,98630.41
2023-04-04T06:12:14.355Z,98626.19
2023-04-04T06:15:24.846Z,98622.94
2023-04-04T06:18:31.746Z,98635.25
2023-04-04T06:21:39.157Z,98639.56
2023-04-04T06:24:45.392Z,98640.28
2023-04-04T06:27:54.427Z,98641.66
2023-04-04T06:31:03.230Z,98635.59
2023-04-04T06:34:15.289Z,98638.78
2023-04-04T06:37:35.796Z,98640.44
2023-04-04T06:40:50.753Z,98632.03
2023-04-04T06:44:03.215Z,98627.84
2023-04-04T06:47:29.224Z,98625.81
2023-04-04T06:50:35.474Z,98626.72
2023-04-04T06:53:45.068Z,98634.72
2023-04-04T06:56:52.045Z,98634.78
2023-04-04T07:00:11.506Z,98641.63
2023-04-04T07:03:27.232Z,98627.94
2023-04-04T07:06:34.112Z,98633.84
2023-04-04T07:09:40.201Z,98624.72
2023-04-04T07:12:47.051Z,98632.91
2023-04-04T07:15:59.315Z,98620.66
2023-04-04T07:19:08.855Z,98627.63
2023-04-04T07:22:21.837Z,98634.44
2023-04-04T07:25:31.922Z,98628.59
2023-04-04T07:28:37.901Z,98630.78
2023-04-04T07:31:45.091Z,98625.09
2023-04-04T07:34:53.961Z,98626.72
2023-04-04T07:38:07.215Z,98629.09
2023-04-04T07:41:16.602Z,98625.63
2023-04-04T07:44:23.582Z,98627.66
2023-04-04T07:47:29.633Z,98621.50
2023-04-04T07:50:39.208Z,98617.97
2023-04-04T07:53:45.267Z,98631.38
2023-04-04T07:56:51.992Z,98621.34
2023-04-04T07:59:58.057Z,98622.00
2023-04-04T08:03:05.012Z,98619.66
2023-04-04T08:06:13.761Z,98618.94
2023-04-04T08:09:20.586Z,98612.78
2023-04-04T08:12:26.644Z,98621.94
2023-04-04T08:15:33.326Z,98621.06
2023-04-04T08:18:40.975Z,98608.84
2023-04-04T08:21:50.408Z,98600.69
2023-04-04T08:24:59.036Z,98610.78
2023-04-04T08:28:07.248Z,98603.78
2023-04-04T08:31:13.520Z,98611.44
2023-04-04T08:34:21.077Z,98612.03
2023-04-04T08:37:31.450Z,98611.13
2023-04-04T08:40:38.896Z,98611.91
2023-04-04T08:43:54.774Z,98606.16
2023-04-04T08:47:05.778Z,98604.91
2023-04-04T08:50:12.345Z,98607.31
2023-04-04T08:53:23.516Z,98600.22
2023-04-04T08:56:30.126Z,98605.50
2023-04-04T08:59:37.445Z,98591.50
2023-04-04T09:02:58.330Z,98591.88
2023-04-04T09:06:07.689Z,98588.56
2023-04-04T09:09:18.883Z,98593.00
2023-04-04T09:12:27.876Z,98589.66
2023-04-04T09:15:38.717Z,98588.25
2023-04-04T09:18:45.535Z,98589.03
2023-04-04T09:21:52.238Z,98591.91
2023-04-04T09:25:01.810Z,98587.78
2023-04-04T09:28:08.700Z,98578.81
2023-04-04T09:31:17.643Z,98587.19
2023-04-04T09:34:24.314Z,98589.25
2023-04-04T09:37:31.473Z,98583.34
2023-04-04T09:40:44.246Z,98589.41
2023-04-04T09:43:51.554Z,98591.25
2023-04-04T09:47:30.955Z,98593.19
2023-04-04T09:50:41.757Z,98584.47
2023-04-04T09:53:52.224Z,98596.81
2023-04-04T09:57:02.087Z,98590.72
2023-04-04T10:00:11.585Z,98579.88
2023-04-04T10:03:21.244Z,98592.75
2023-04-04T10:06:27.556Z,98578.41
2023-04-04T10:09:34.542Z,98580.09
2023-04-04T10:12:43.170Z,98586.75
2023-04-04T10:15:51.098Z,98588.25
2023-04-04T10:18:57.619Z,98595.56
2023-04-04T10:22:08.199Z,98574.69
2023-04-04T10:25:14.533Z,98577.56
2023-04-04T10:28:25.115Z,98577.53
2023-04-04T10:31:37.608Z,98575.06
2023-04-04T10:34:56.972Z,98569.13
2023-04-04T10:38:08.675Z,98573.50
2023-04-04T10:41:18.003Z,98573.72
2023-04-04T10:44:34.229Z,98577.56
2023-04-04T10:47:43.412Z,98574.28
2023-04-04T10:50:52.069Z,98570.00
2023-04-04T10:53:59.651Z,98570.59
2023-04-04T10:57:06.200Z,98564.91
2023-04-04T11:00:19.744Z,98557.25
2023-04-04T11:03:26.422Z,98566.09
2023-04-04T11:07:17.650Z,98564.44
2023-04-04T11:10:28.608Z,98566.06
2023-04-04T11:13:40.211Z,98557.25
2023-04-04T11:16:55.796Z,98555.69
2023-04-04T11:20:06.960Z,98551.72
2023-04-04T11:23:23.223Z,98553.28
2023-04-04T11:26:39.928Z,98557.34
2023-04-04T11:29:56.077Z,98552.19
2023-04-04T11:33:08.178Z,98555.16
2023-04-04T11:36:47.759Z,98541.56
2023-04-04T11:39:59.336Z,98537.66
2023-04-04T11:43:11.154Z,98538.53
2023-04-04T11:46:21.517Z,98538.44
2023-04-04T11:49:38.481Z,98535.69
2023-04-04T11:52:46.563Z,98540.28
2023-04-04T11:55:55.063Z,98540.94
2023-04-04T11:59:11.026Z,98545.97
2023-04-04T12:02:23.832Z,98545.78
2023-04-04T12:05:34.410Z,98550.00
2023-04-04T12:08:40.845Z,98544.16
2023-04-04T12:11:48.624Z,98550.22
2023-04-04T12:15:06.762Z,98556.47
2023-04-04T12:18:26.836Z,98554.97
2023-04-04T12:21:37.484Z,98555.38
2023-04-04T12:24:44.464Z,98548.44
2023-04-04T12:27:52.973Z,98542.06
2023-04-04T12:31:05.586Z,98548.72
2023-04-04T12:34:19.949Z,98549.19
2023-04-04T12:37:33.500Z,98565.41
2023-04-04T12:40:42.183Z,98557.56
2023-04-04T12:43:50.338Z,98558.59
2023-04-04T12:47:00.947Z,98557.41
2023-04-04T12:50:12.186Z,98549.00
2023-04-04T12:56:35.839Z,98555.78
2023-04-04T12:59:42.537Z,98555.16
2023-04-04T13:02:53.501Z,98553.72
2023-04-04T13:06:01.634Z,98551.25
2023-04-04T13:09:21.169Z,98545.94
2023-04-04T13:12:27.563Z,98544.53
2023-04-04T13:15:54.787Z,98551.63
2023-04-04T13:19:01.228Z,98558.31
2023-04-04T13:22:12.602Z,98559.19
2023-04-04T13:25:21.584Z,98562.00
2023-04-04T13:28:28.609Z,98555.00
2023-04-04T13:31:34.769Z,98548.63
2023-04-04T13:34:41.742Z,98562.91
2023-04-04T13:37:47.803Z,98562.94
2023-04-04T13:40:57.659Z,98569.00
2023-04-04T13:44:03.915Z,98566.50
2023-04-04T13:47:10.828Z,98564.66
2023-04-04T13:50:17.160Z,98560.47
2023-04-04T13:53:24.263Z,98550.56
2023-04-04T13:56:32.979Z,98554.13
2023-04-04T13:59:39.871Z,98545.41
2023-04-04T14:02:47.004Z,98547.19
2023-04-04T14:05:54.045Z,98544.56
2023-04-04T14:09:00.051Z,98546.25
2023-04-04T14:12:10.088Z,98547.66
2023-04-04T14:15:16.230Z,98552.34
2023-04-04T14:18:23.157Z,98555.78
2023-04-04T14:21:29.201Z,98555.81
2023-04-04T14:24:35.998Z,98548.88
2023-04-04T14:27:46.497Z,98539.84
2023-04-04T14:30:54.165Z,98546.22
2023-04-04T14:34:00.505Z,98544.06
2023-04-04T14:37:07.796Z,98542.75
2023-04-04T14:40:14.530Z,98545.63
2023-04-04T14:43:26.246Z,98550.59
2023-04-04T14:46:34.268Z,98542.00
2023-04-04T14:49:41.053Z,98542.84
2023-04-04T14:52:48.101Z,98549.41
2023-04-04T14:55:55.637Z,98550.72
2023-04-04T14:59:06.059Z,98551.22
2023-04-04T15:02:12.854Z,98547.38
2023-04-04T15:05:19.493Z,98536.81
2023-04-04T15:08:26.759Z,98523.53
2023-04-04T15:11:33.396Z,98534.22
2023-04-04T15:14:43.112Z,98536.22
2023-04-04T15:17:51.179Z,98524.78
2023-04-04T15:21:00.372Z,98521.56
2023-04-04T15:24:06.495Z,98524.47
2023-04-04T15:27:15.574Z,98531.84
2023-04-04T15:30:29.566Z,98526.81
2023-04-04T15:33:39.349Z,98534.56
2023-04-04T15:36:45.451Z,98542.03
2023-04-04T15:39:55.048Z,98541.13
2023-04-04T15:43:01.573Z,98533.38
2023-04-04T15:46:14.371Z,98536.53
2023-04-04T15:49:20.417Z,98528.41
2023-04-04T15:52:27.450Z,98528.66
2023-04-04T15:55:33.472Z,98536.06
2023-04-04T15:58:40.219Z,98537.16
2023-04-04T16:01:49.222Z,98544.09
2023-04-04T16:04:56.225Z,98543.13
2023-04-04T16:08:03.412Z,98551.53
2023-04-04T16:11:10.195Z,98551.03
2023-04-04T16:14:16.339Z,98550.41
2023-04-04T16:17:26.434Z,98549.56
2023-04-04T16:20:33.246Z,98551.38
2023-04-04T16:23:40.118Z,98557.09
2023-04-04T16:26:47.737Z,98548.75
2023-04-04T16:29:54.553Z,98551.25
2023-04-04T16:33:10.453Z,98557.00
2023-04-04T16:36:17.512Z,98552.63
2023-04-04T16:39:23.483Z,98554.41
2023-04-04T16:42:30.449Z,98548.44
2023-04-04T16:45:36.499Z,98561.53
2023-04-04T16:48:46.314Z,98555.47
2023-04-04T16:51:52.312Z,98553.25
2023-04-04T16:54:59.192Z,98562.31
2023-04-04T16:58:05.366Z,98566.50
2023-04-04T17:01:15.404Z,98571.38
2023-04-04T17:04:24.008Z,98570.31
2023-04-04T17:07:31.119Z,98570.00
2023-04-04T17:10:40.818Z,98568.22
2023-04-04T17:13:47.988Z,98571.78
2023-04-04T17:16:54.577Z,98574.28
2023-04-04T17:20:08.642Z,98579.09
2023-04-04T17:23:17.425Z,98577.78
2023-04-04T17:26:40.068Z,98576.97
2023-04-04T17:29:46.414Z,98585.34
2023-04-04T17:32:55.683Z,98586.28
2023-04-04T17:36:06.586Z,98577.25
2023-04-04T17:39:15.773Z,98585.72
2023-04-04T17:42:21.778Z,98585.25
2023-04-04T17:45:39.382Z,98589.59
2023-04-04T17:48:49.971Z,98598.44
2023-04-04T17:52:21.456Z,98600.41
2023-04-04T17:55:42.201Z,98609.31
2023-04-04T17:58:49.990Z,98615.91
2023-04-04T18:01:57.326Z,98614.34
2023-04-04T18:05:04.457Z,98612.41
2023-04-04T18:08:14.236Z,98615.09
2023-04-04T18:11:21.256Z,98604.44
2023-04-04T18:14:30.231Z,98608.75
2023-04-04T18:17:37.203Z,98605.50
2023-04-04T18:20:43.609Z,98604.22
2023-04-04T18:23:53.365Z,98606.00
2023-04-04T18:26:59.971Z,98600.97
2023-04-04T18:30:07.839Z,98602.75
2023-04-04T18:33:15.277Z,98615.97
2023-04-04T18:36:22.271Z,98614.09
2023-04-04T18:39:31.337Z,98611.34
2023-04-04T18:42:38.980Z,98602.53
2023-04-04T18:45:47.119Z,98606.19
2023-04-04T18:48:54.286Z,98607.84
2023-04-04T18:52:01.218Z,98604.69
2023-04-04T18:55:12.721Z,98600.50
2023-04-04T18:58:18.810Z,98604.47
2023-04-04T19:01:26.028Z,98604.56
2023-04-04T19:04:38.788Z,98612.13
2023-04-04T19:07:49.732Z,98613.75
2023-04-04T19:11:03.571Z,98608.94
2023-04-04T19:14:10.547Z,98606.66
2023-04-04T19:17:18.522Z,98608.66
2023-04-04T19:20:35.064Z,98601.38
2023-04-04T19:23:41.474Z,98605.41
2023-04-04T19:26:59.367Z,98609.81
2023-04-04T19:30:14.640Z,98608.84
2023-04-04T19:33:26.103Z,98608.09
2023-04-04T19:36:40.867Z,98607.53
2023-04-04T19:39:53.789Z,98606.06
2023-04-04T19:43:04.342Z,98601.94
2023-04-04T19:46:14.434Z,98591.88
2023-04-04T19:49:21.086Z,98595.31
2023-04-04T19:52:41.455Z,98599.22
2023-04-04T19:55:47.738Z,98607.72
2023-04-04T19:59:08.095Z,98606.41
2023-04-04T20:02:58.286Z,98609.22
2023-04-04T20:06:12.661Z,98599.97
2023-04-04T20:09:40.341Z,98603.31
2023-04-04T20:12:56.674Z,98597.44
2023-04-04T20:16:12.356Z,98602.66
2023-04-04T20:19:32.615Z,98601.72
2023-04-04T20:22:38.871Z,98609.84
2023-04-04T20:25:47.399Z,98607.31
2023-04-04T20:28:53.433Z,98605.66
2023-04-04T20:32:05.714Z,98605.84
2023-04-04T20:35:29.286Z,98610.31
2023-04-04T20:38:36.627Z,98600.69
2023-04-04T20:41:45.783Z,98598.34
2023-04-04T20:44:52.729Z,98604.59
2023-04-04T20:48:06.789Z,98602.91
2023-04-04T20:51:30.182Z,98599.28
2023-04-04T20:54:39.672Z,98602.91
2023-04-04T20:57:48.543Z,98604.78
2023-04-04T21:00:54.752Z,98608.31
2023-04-04T21:04:04.275Z,98608.41
2023-04-04T21:07:10.447Z,98604.13
2023-04-04T21:10:27.636Z,98598.06
2023-04-04T21:13:39.402Z,98602.16
2023-04-04T21:16:46.301Z,98604.94
2023-04-04T21:20:07.442Z,98601.50
2023-04-04T21:23:36.361Z,98600.81
2023-04-04T21:26:51.448Z,98602.59
2023-04-04T21:29:58.440Z,98597.81
2023-04-04T21:33:04.646Z,98602.22
2023-04-04T21:36:27.749Z,98596.16
2023-04-04T21:39:35.350Z,98598.75
2023-04-04T21:42:42.163Z,98592.91
2023-04-04T21:45:48.482Z,98585.97
2023-04-04T21:48:56.283Z,98586.16
2023-04-04T21:52:05.024Z,98581.31
2023-04-04T21:55:15.321Z,98572.53
2023-04-04T21:58:23.605Z,98570.19
2023-04-04T22:01:31.286Z,98578.13
2023-04-04T22:04:37.442Z,98565.91
2023-04-04T22:07:47.218Z,98569.34
2023-04-04T22:10:53.281Z,98563.38
2023-04-04T22:14:07.846Z,98570.91
2023-04-04T22:17:23.153Z,98567.53
2023-04-04T22:20:29.958Z,98565.00
2023-04-04T22:23:40.600Z,98563.53
2023-04-04T22:26:47.693Z,98559.97
2023-04-04T22:29:53.671Z,98568.22
2023-04-04T22:33:03.783Z,98562.44
2023-04-04T22:36:11.303Z,98559.81
2023-04-04T22:39:20.952Z,98556.97
2023-04-04T22:42:27.218Z,98550.84
2023-04-04T22:45:34.790Z,98549.31
2023-04-04T22:48:41.637Z,98556.97
2023-04-04T22:51:48.535Z,98551.94
2023-04-04T22:54:57.161Z,98555.06
2023-04-04T22:58:04.987Z,98548.09
2023-04-04T23:01:11.200Z,98552.19
2023-04-04T23:04:18.203Z,98544.47
2023-04-04T23:07:24.243Z,98549.75
2023-04-04T23:10:34.676Z,98543.31
2023-04-04T23:13:42.627Z,98537.25
2023-04-04T23:16:53.065Z,98538.50
2023-04-04T23:19:59.411Z,98530.94
2023-04-04T23:23:06.312Z,98535.31
2023-04-04T23:26:14.921Z,98532.66
2023-04-04T23:29:21.757Z,98532.66
2023-04-04T23:32:27.793Z,98530.13
2023-04-04T23:35:34.730Z,98522.28
2023-04-04T23:38:43.562Z,98523.31
2023-04-04T23:41:52.960Z,98520.69
2023-04-04T23:45:03.790Z,98519.03
2023-04-04T23:48:11.139Z,98510.63
2023-04-04T23:51:17.823Z,98510.94
2023-04-04T23:54:24.582Z,98508.53
2023-04-04T23:57:39.471Z,98508.78
